sensor_id;sensor_type;location;lat;lon;timestamp;P1;P2;P0
77352;PMS5003;66421;40.310;-75.130;2023-01-24T00:01:13;1;1;
77352;PMS5003;66421;40.310;-75.130;2023-01-24T00:03:39;0;0;
77352;PMS5003;66421;40.310;-75.130;2023-01-24T00:06:05;0;0;
77352;PMS5003;66421;40.310;-75.130;2023-01-24T00:08:30;1;1;
77352;PMS5003;66421;40.310;-75.130;2023-01-24T00:10:59;0;0;
77352;PMS5003;66421;40.310;-75.130;2023-01-24T00:13:20;1;0;
77352;PMS5003;66421;40.310;-75.130;2023-01-24T00:15:46;1;1;
77352;PMS5003;66421;40.310;-75.130;2023-01-24T00:18:11;0;0;
77352;PMS5003;66421;40.310;-75.130;2023-01-24T00:20:36;1;1;
77352;PMS5003;66421;40.310;-75.130;2023-01-24T00:23:02;1;1;
77352;PMS5003;66421;40.310;-75.130;2023-01-24T00:25:27;1;1;
77352;PMS5003;66421;40.310;-75.130;2023-01-24T00:27:53;0;0;
77352;PMS5003;66421;40.310;-75.130;2023-01-24T00:30:18;1;1;
77352;PMS5003;66421;40.310;-75.130;2023-01-24T00:32:43;1;1;
77352;PMS5003;66421;40.310;-75.130;2023-01-24T00:35:09;1;1;
77352;PMS5003;66421;40.310;-75.130;2023-01-24T00:37:34;1;1;
77352;PMS5003;66421;40.310;-75.130;2023-01-24T00:39:59;0;0;
77352;PMS5003;66421;40.310;-75.130;2023-01-24T00:42:25;1;0;
77352;PMS5003;66421;40.310;-75.130;2023-01-24T00:44:50;1;1;
77352;PMS5003;66421;40.310;-75.130;2023-01-24T00:47:15;2;1;
77352;PMS5003;66421;40.310;-75.130;2023-01-24T00:49:41;1;1;
77352;PMS5003;66421;40.310;-75.130;2023-01-24T00:52:06;1;1;
77352;PMS5003;66421;40.310;-75.130;2023-01-24T00:54:32;1;1;
77352;PMS5003;66421;40.310;-75.130;2023-01-24T00:56:57;0;0;
77352;PMS5003;66421;40.310;-75.130;2023-01-24T00:59:22;1;1;
77352;PMS5003;66421;40.310;-75.130;2023-01-24T01:01:48;2;2;
77352;PMS5003;66421;40.310;-75.130;2023-01-24T01:04:13;1;1;
77352;PMS5003;66421;40.310;-75.130;2023-01-24T01:06:39;2;2;
77352;PMS5003;66421;40.310;-75.130;2023-01-24T01:09:04;1;1;
77352;PMS5003;66421;40.310;-75.130;2023-01-24T01:11:30;2;1;
77352;PMS5003;66421;40.310;-75.130;2023-01-24T01:13:55;1;1;
77352;PMS5003;66421;40.310;-75.130;2023-01-24T01:16:20;2;2;
77352;PMS5003;66421;40.310;-75.130;2023-01-24T01:18:46;3;3;
77352;PMS5003;66421;40.310;-75.130;2023-01-24T01:21:12;2;2;
77352;PMS5003;66421;40.310;-75.130;2023-01-24T01:23:36;2;2;
77352;PMS5003;66421;40.310;-75.130;2023-01-24T01:26:03;2;2;
77352;PMS5003;66421;40.310;-75.130;2023-01-24T01:28:27;2;2;
77352;PMS5003;66421;40.310;-75.130;2023-01-24T01:30:53;3;3;
77352;PMS5003;66421;40.310;-75.130;2023-01-24T01:33:18;4;2;
77352;PMS5003;66421;40.310;-75.130;2023-01-24T01:35:43;3;2;
77352;PMS5003;66421;40.310;-75.130;2023-01-24T01:38:08;2;2;
77352;PMS5003;66421;40.310;-75.130;2023-01-24T01:40:34;2;2;
77352;PMS5003;66421;40.310;-75.130;2023-01-24T01:43:00;2;2;
77352;PMS5003;66421;40.310;-75.130;2023-01-24T01:45:33;3;3;
77352;PMS5003;66421;40.310;-75.130;2023-01-24T01:47:50;4;3;
77352;PMS5003;66421;40.310;-75.130;2023-01-24T01:50:18;2;2;
77352;PMS5003;66421;40.310;-75.130;2023-01-24T01:52:41;4;3;
77352;PMS5003;66421;40.310;-75.130;2023-01-24T01:55:08;2;2;
77352;PMS5003;66421;40.310;-75.130;2023-01-24T01:57:32;3;3;
77352;PMS5003;66421;40.310;-75.130;2023-01-24T01:59:58;4;3;
77352;PMS5003;66421;40.310;-75.130;2023-01-24T02:02:22;4;3;
77352;PMS5003;66421;40.310;-75.130;2023-01-24T02:04:49;4;4;
77352;PMS5003;66421;40.310;-75.130;2023-01-24T02:07:14;3;3;
77352;PMS5003;66421;40.310;-75.130;2023-01-24T02:09:39;6;5;
77352;PMS5003;66421;40.310;-75.130;2023-01-24T02:12:05;2;2;
77352;PMS5003;66421;40.310;-75.130;2023-01-24T02:14:29;4;2;
77352;PMS5003;66421;40.310;-75.130;2023-01-24T02:16:55;2;2;
77352;PMS5003;66421;40.310;-75.130;2023-01-24T02:19:23;3;3;
77352;PMS5003;66421;40.310;-75.130;2023-01-24T02:21:45;3;3;
77352;PMS5003;66421;40.310;-75.130;2023-01-24T02:24:12;4;4;
77352;PMS5003;66421;40.310;-75.130;2023-01-24T02:26:36;3;3;
77352;PMS5003;66421;40.310;-75.130;2023-01-24T02:29:04;4;3;
77352;PMS5003;66421;40.310;-75.130;2023-01-24T02:31:27;3;3;
77352;PMS5003;66421;40.310;-75.130;2023-01-24T02:33:52;6;5;
77352;PMS5003;66421;40.310;-75.130;2023-01-24T02:36:19;5;5;
77352;PMS5003;66421;40.310;-75.130;2023-01-24T02:38:44;3;3;
77352;PMS5003;66421;40.310;-75.130;2023-01-24T02:41:08;4;4;
77352;PMS5003;66421;40.310;-75.130;2023-01-24T02:43:34;5;4;
77352;PMS5003;66421;40.310;-75.130;2023-01-24T02:45:59;3;3;
77352;PMS5003;66421;40.310;-75.130;2023-01-24T02:48:25;8;6;
77352;PMS5003;66421;40.310;-75.130;2023-01-24T02:50:50;5;5;
77352;PMS5003;66421;40.310;-75.130;2023-01-24T02:53:15;5;5;
77352;PMS5003;66421;40.310;-75.130;2023-01-24T02:55:41;5;5;
77352;PMS5003;66421;40.310;-75.130;2023-01-24T02:58:06;4;4;
77352;PMS5003;66421;40.310;-75.130;2023-01-24T03:00:32;4;4;
77352;PMS5003;66421;40.310;-75.130;2023-01-24T03:02:57;4;4;
77352;PMS5003;66421;40.310;-75.130;2023-01-24T03:05:22;4;4;
77352;PMS5003;66421;40.310;-75.130;2023-01-24T03:07:48;4;4;
77352;PMS5003;66421;40.310;-75.130;2023-01-24T03:10:14;4;4;
77352;PMS5003;66421;40.310;-75.130;2023-01-24T03:12:39;5;5;
77352;PMS5003;66421;40.310;-75.130;2023-01-24T03:15:04;8;6;
77352;PMS5003;66421;40.310;-75.130;2023-01-24T03:17:29;4;4;
77352;PMS5003;66421;40.310;-75.130;2023-01-24T03:19:55;5;4;
77352;PMS5003;66421;40.310;-75.130;2023-01-24T03:22:20;6;6;
77352;PMS5003;66421;40.310;-75.130;2023-01-24T03:24:46;5;4;
77352;PMS5003;66421;40.310;-75.130;2023-01-24T03:27:11;8;8;
77352;PMS5003;66421;40.310;-75.130;2023-01-24T03:29:37;6;6;
77352;PMS5003;66421;40.310;-75.130;2023-01-24T03:32:02;9;9;
77352;PMS5003;66421;40.310;-75.130;2023-01-24T03:34:27;7;7;
77352;PMS5003;66421;40.310;-75.130;2023-01-24T03:36:52;5;5;
77352;PMS5003;66421;40.310;-75.130;2023-01-24T03:39:19;7;7;
77352;PMS5003;66421;40.310;-75.130;2023-01-24T03:41:43;5;5;
77352;PMS5003;66421;40.310;-75.130;2023-01-24T03:44:09;5;5;
77352;PMS5003;66421;40.310;-75.130;2023-01-24T03:46:34;8;6;
77352;PMS5003;66421;40.310;-75.130;2023-01-24T03:48:59;6;6;
77352;PMS5003;66421;40.310;-75.130;2023-01-24T03:51:25;8;8;
77352;PMS5003;66421;40.310;-75.130;2023-01-24T03:53:52;8;8;
77352;PMS5003;66421;40.310;-75.130;2023-01-24T03:56:16;9;9;
77352;PMS5003;66421;40.310;-75.130;2023-01-24T03:58:41;5;4;
77352;PMS5003;66421;40.310;-75.130;2023-01-24T04:01:06;9;9;
77352;PMS5003;66421;40.310;-75.130;2023-01-24T04:03:31;8;8;
77352;PMS5003;66421;40.310;-75.130;2023-01-24T04:05:57;9;8;
77352;PMS5003;66421;40.310;-75.130;2023-01-24T04:08:22;7;7;
77352;PMS5003;66421;40.310;-75.130;2023-01-24T04:10:48;6;6;
77352;PMS5003;66421;40.310;-75.130;2023-01-24T04:13:13;7;7;
77352;PMS5003;66421;40.310;-75.130;2023-01-24T04:15:38;6;6;
77352;PMS5003;66421;40.310;-75.130;2023-01-24T04:18:04;8;8;
77352;PMS5003;66421;40.310;-75.130;2023-01-24T04:20:30;8;8;
77352;PMS5003;66421;40.310;-75.130;2023-01-24T04:22:55;5;5;
77352;PMS5003;66421;40.310;-75.130;2023-01-24T04:25:20;5;5;
77352;PMS5003;66421;40.310;-75.130;2023-01-24T04:27:45;6;5;
77352;PMS5003;66421;40.310;-75.130;2023-01-24T04:30:12;6;6;
77352;PMS5003;66421;40.310;-75.130;2023-01-24T04:32:36;6;5;
77352;PMS5003;66421;40.310;-75.130;2023-01-24T04:35:01;9;9;
77352;PMS5003;66421;40.310;-75.130;2023-01-24T04:37:27;6;6;
77352;PMS5003;66421;40.310;-75.130;2023-01-24T04:39:52;8;8;
77352;PMS5003;66421;40.310;-75.130;2023-01-24T04:42:17;8;8;
77352;PMS5003;66421;40.310;-75.130;2023-01-24T04:44:43;6;6;
77352;PMS5003;66421;40.310;-75.130;2023-01-24T04:47:08;8;7;
77352;PMS5003;66421;40.310;-75.130;2023-01-24T04:49:34;8;7;
77352;PMS5003;66421;40.310;-75.130;2023-01-24T04:51:59;8;7;
77352;PMS5003;66421;40.310;-75.130;2023-01-24T04:54:24;7;7;
77352;PMS5003;66421;40.310;-75.130;2023-01-24T04:56:50;5;4;
77352;PMS5003;66421;40.310;-75.130;2023-01-24T04:59:15;5;5;
77352;PMS5003;66421;40.310;-75.130;2023-01-24T05:01:40;4;3;
77352;PMS5003;66421;40.310;-75.130;2023-01-24T05:04:06;8;8;
77352;PMS5003;66421;40.310;-75.130;2023-01-24T05:06:32;5;5;
77352;PMS5003;66421;40.310;-75.130;2023-01-24T05:08:57;5;5;
77352;PMS5003;66421;40.310;-75.130;2023-01-24T05:11:22;8;5;
77352;PMS5003;66421;40.310;-75.130;2023-01-24T05:13:48;5;5;
77352;PMS5003;66421;40.310;-75.130;2023-01-24T05:16:13;5;5;
77352;PMS5003;66421;40.310;-75.130;2023-01-24T05:18:38;5;4;
77352;PMS5003;66421;40.310;-75.130;2023-01-24T05:21:05;5;4;
77352;PMS5003;66421;40.310;-75.130;2023-01-24T05:23:29;7;5;
77352;PMS5003;66421;40.310;-75.130;2023-01-24T05:25:57;4;4;
77352;PMS5003;66421;40.310;-75.130;2023-01-24T05:28:20;4;4;
77352;PMS5003;66421;40.310;-75.130;2023-01-24T05:30:45;4;4;
77352;PMS5003;66421;40.310;-75.130;2023-01-24T05:33:11;5;5;
77352;PMS5003;66421;40.310;-75.130;2023-01-24T05:35:36;4;4;
77352;PMS5003;66421;40.310;-75.130;2023-01-24T05:38:01;3;3;
77352;PMS5003;66421;40.310;-75.130;2023-01-24T05:40:27;4;4;
77352;PMS5003;66421;40.310;-75.130;2023-01-24T05:42:52;5;4;
77352;PMS5003;66421;40.310;-75.130;2023-01-24T05:45:18;3;3;
77352;PMS5003;66421;40.310;-75.130;2023-01-24T05:47:43;4;3;
77352;PMS5003;66421;40.310;-75.130;2023-01-24T05:50:09;4;4;
77352;PMS5003;66421;40.310;-75.130;2023-01-24T05:52:34;4;4;
77352;PMS5003;66421;40.310;-75.130;2023-01-24T05:54:59;5;5;
77352;PMS5003;66421;40.310;-75.130;2023-01-24T05:57:25;4;4;
77352;PMS5003;66421;40.310;-75.130;2023-01-24T05:59:50;4;4;
77352;PMS5003;66421;40.310;-75.130;2023-01-24T06:02:15;5;5;
77352;PMS5003;66421;40.310;-75.130;2023-01-24T06:04:41;8;5;
77352;PMS5003;66421;40.310;-75.130;2023-01-24T06:07:06;7;7;
77352;PMS5003;66421;40.310;-75.130;2023-01-24T06:09:32;7;7;
77352;PMS5003;66421;40.310;-75.130;2023-01-24T06:11:57;7;7;
77352;PMS5003;66421;40.310;-75.130;2023-01-24T06:14:23;5;4;
77352;PMS5003;66421;40.310;-75.130;2023-01-24T06:16:48;5;5;
77352;PMS5003;66421;40.310;-75.130;2023-01-24T06:19:14;7;7;
77352;PMS5003;66421;40.310;-75.130;2023-01-24T06:21:42;7;7;
77352;PMS5003;66421;40.310;-75.130;2023-01-24T06:24:05;8;7;
77352;PMS5003;66421;40.310;-75.130;2023-01-24T06:26:30;8;7;
77352;PMS5003;66421;40.310;-75.130;2023-01-24T06:28:55;7;5;
77352;PMS5003;66421;40.310;-75.130;2023-01-24T06:31:22;5;5;
77352;PMS5003;66421;40.310;-75.130;2023-01-24T06:34:00;9;7;
77352;PMS5003;66421;40.310;-75.130;2023-01-24T06:36:16;8;7;
77352;PMS5003;66421;40.310;-75.130;2023-01-24T06:38:36;8;7;
77352;PMS5003;66421;40.310;-75.130;2023-01-24T06:41:02;7;5;
77352;PMS5003;66421;40.310;-75.130;2023-01-24T06:43:27;8;8;
77352;PMS5003;66421;40.310;-75.130;2023-01-24T06:45:53;8;7;
77352;PMS5003;66421;40.310;-75.130;2023-01-24T06:48:18;8;7;
77352;PMS5003;66421;40.310;-75.130;2023-01-24T06:50:43;8;7;
77352;PMS5003;66421;40.310;-75.130;2023-01-24T06:53:09;8;7;
77352;PMS5003;66421;40.310;-75.130;2023-01-24T06:55:34;8;5;
77352;PMS5003;66421;40.310;-75.130;2023-01-24T06:58:00;7;7;
77352;PMS5003;66421;40.310;-75.130;2023-01-24T07:00:25;9;9;
77352;PMS5003;66421;40.310;-75.130;2023-01-24T07:05:15;8;8;
77352;PMS5003;66421;40.310;-75.130;2023-01-24T07:07:41;8;8;
77352;PMS5003;66421;40.310;-75.130;2023-01-24T07:10:07;9;8;
77352;PMS5003;66421;40.310;-75.130;2023-01-24T07:12:32;8;7;
77352;PMS5003;66421;40.310;-75.130;2023-01-24T07:14:57;8;7;
77352;PMS5003;66421;40.310;-75.130;2023-01-24T07:17:23;14;11;
77352;PMS5003;66421;40.310;-75.130;2023-01-24T07:19:49;5;5;
77352;PMS5003;66421;40.310;-75.130;2023-01-24T07:22:14;16;11;
77352;PMS5003;66421;40.310;-75.130;2023-01-24T07:24:39;9;8;
77352;PMS5003;66421;40.310;-75.130;2023-01-24T07:27:04;9;8;
77352;PMS5003;66421;40.310;-75.130;2023-01-24T07:29:30;9;8;
77352;PMS5003;66421;40.310;-75.130;2023-01-24T07:31:55;9;8;
77352;PMS5003;66421;40.310;-75.130;2023-01-24T07:34:21;8;8;
77352;PMS5003;66421;40.310;-75.130;2023-01-24T07:36:46;14;10;
77352;PMS5003;66421;40.310;-75.130;2023-01-24T07:39:11;7;7;
77352;PMS5003;66421;40.310;-75.130;2023-01-24T07:41:36;9;9;
77352;PMS5003;66421;40.310;-75.130;2023-01-24T07:44:02;8;8;
77352;PMS5003;66421;40.310;-75.130;2023-01-24T07:46:27;7;5;
77352;PMS5003;66421;40.310;-75.130;2023-01-24T07:48:52;11;9;
77352;PMS5003;66421;40.310;-75.130;2023-01-24T07:51:17;10;9;
77352;PMS5003;66421;40.310;-75.130;2023-01-24T07:53:43;9;9;
77352;PMS5003;66421;40.310;-75.130;2023-01-24T07:56:08;11;10;
77352;PMS5003;66421;40.310;-75.130;2023-01-24T07:58:34;8;7;
77352;PMS5003;66421;40.310;-75.130;2023-01-24T08:00:59;8;7;
77352;PMS5003;66421;40.310;-75.130;2023-01-24T08:03:24;12;10;
77352;PMS5003;66421;40.310;-75.130;2023-01-24T08:05:50;20;10;
77352;PMS5003;66421;40.310;-75.130;2023-01-24T08:08:16;9;9;
77352;PMS5003;66421;40.310;-75.130;2023-01-24T08:10:41;14;7;
77352;PMS5003;66421;40.310;-75.130;2023-01-24T08:13:06;8;7;
77352;PMS5003;66421;40.310;-75.130;2023-01-24T08:15:31;9;9;
77352;PMS5003;66421;40.310;-75.130;2023-01-24T08:17:57;12;11;
77352;PMS5003;66421;40.310;-75.130;2023-01-24T08:20:22;10;9;
77352;PMS5003;66421;40.310;-75.130;2023-01-24T08:22:48;9;8;
77352;PMS5003;66421;40.310;-75.130;2023-01-24T08:25:13;9;8;
77352;PMS5003;66421;40.310;-75.130;2023-01-24T08:27:39;11;10;
77352;PMS5003;66421;40.310;-75.130;2023-01-24T08:30:04;8;8;
77352;PMS5003;66421;40.310;-75.130;2023-01-24T08:32:29;11;10;
77352;PMS5003;66421;40.310;-75.130;2023-01-24T08:34:54;10;9;
77352;PMS5003;66421;40.310;-75.130;2023-01-24T08:37:20;11;10;
77352;PMS5003;66421;40.310;-75.130;2023-01-24T08:39:45;11;10;
77352;PMS5003;66421;40.310;-75.130;2023-01-24T08:42:10;11;11;
77352;PMS5003;66421;40.310;-75.130;2023-01-24T08:44:35;9;9;
77352;PMS5003;66421;40.310;-75.130;2023-01-24T08:47:01;10;10;
77352;PMS5003;66421;40.310;-75.130;2023-01-24T08:49:26;8;7;
77352;PMS5003;66421;40.310;-75.130;2023-01-24T08:51:51;9;9;
77352;PMS5003;66421;40.310;-75.130;2023-01-24T08:54:17;11;10;
77352;PMS5003;66421;40.310;-75.130;2023-01-24T08:56:42;10;10;
77352;PMS5003;66421;40.310;-75.130;2023-01-24T08:59:08;14;11;
77352;PMS5003;66421;40.310;-75.130;2023-01-24T09:01:33;10;10;
77352;PMS5003;66421;40.310;-75.130;2023-01-24T09:03:58;11;10;
77352;PMS5003;66421;40.310;-75.130;2023-01-24T09:06:23;10;10;
77352;PMS5003;66421;40.310;-75.130;2023-01-24T09:08:51;9;8;
77352;PMS5003;66421;40.310;-75.130;2023-01-24T09:11:14;14;12;
77352;PMS5003;66421;40.310;-75.130;2023-01-24T09:13:40;10;10;
77352;PMS5003;66421;40.310;-75.130;2023-01-24T09:16:05;10;8;
77352;PMS5003;66421;40.310;-75.130;2023-01-24T09:18:30;10;10;
77352;PMS5003;66421;40.310;-75.130;2023-01-24T09:20:59;11;10;
77352;PMS5003;66421;40.310;-75.130;2023-01-24T09:23:21;12;11;
77352;PMS5003;66421;40.310;-75.130;2023-01-24T09:25:49;11;10;
77352;PMS5003;66421;40.310;-75.130;2023-01-24T09:28:11;14;13;
77352;PMS5003;66421;40.310;-75.130;2023-01-24T09:30:37;10;9;
77352;PMS5003;66421;40.310;-75.130;2023-01-24T09:33:02;11;11;
77352;PMS5003;66421;40.310;-75.130;2023-01-24T09:35:28;22;13;
77352;PMS5003;66421;40.310;-75.130;2023-01-24T09:37:53;14;11;
77352;PMS5003;66421;40.310;-75.130;2023-01-24T09:40:20;14;13;
77352;PMS5003;66421;40.310;-75.130;2023-01-24T09:42:45;11;10;
77352;PMS5003;66421;40.310;-75.130;2023-01-24T09:45:12;11;10;
77352;PMS5003;66421;40.310;-75.130;2023-01-24T09:47:37;11;11;
77352;PMS5003;66421;40.310;-75.130;2023-01-24T09:50:01;8;8;
77352;PMS5003;66421;40.310;-75.130;2023-01-24T09:52:29;14;11;
77352;PMS5003;66421;40.310;-75.130;2023-01-24T09:54:52;15;11;
77352;PMS5003;66421;40.310;-75.130;2023-01-24T09:57:17;11;11;
77352;PMS5003;66421;40.310;-75.130;2023-01-24T09:59:42;16;14;
77352;PMS5003;66421;40.310;-75.130;2023-01-24T10:04:34;18;14;
77352;PMS5003;66421;40.310;-75.130;2023-01-24T10:07:03;9;9;
77352;PMS5003;66421;40.310;-75.130;2023-01-24T10:09:25;11;11;
77352;PMS5003;66421;40.310;-75.130;2023-01-24T10:11:51;13;13;
77352;PMS5003;66421;40.310;-75.130;2023-01-24T10:14:19;12;10;
77352;PMS5003;66421;40.310;-75.130;2023-01-24T10:16:45;14;11;
77352;PMS5003;66421;40.310;-75.130;2023-01-24T10:19:07;9;9;
77352;PMS5003;66421;40.310;-75.130;2023-01-24T10:21:37;14;12;
77352;PMS5003;66421;40.310;-75.130;2023-01-24T10:23:56;20;11;
77352;PMS5003;66421;40.310;-75.130;2023-01-24T10:26:22;14;10;
77352;PMS5003;66421;40.310;-75.130;2023-01-24T10:28:48;20;16;
77352;PMS5003;66421;40.310;-75.130;2023-01-24T10:31:13;15;14;
77352;PMS5003;66421;40.310;-75.130;2023-01-24T10:33:40;13;11;
77352;PMS5003;66421;40.310;-75.130;2023-01-24T10:36:05;19;14;
77352;PMS5003;66421;40.310;-75.130;2023-01-24T10:38:29;15;14;
77352;PMS5003;66421;40.310;-75.130;2023-01-24T10:40:55;12;10;
77352;PMS5003;66421;40.310;-75.130;2023-01-24T10:43:21;15;14;
77352;PMS5003;66421;40.310;-75.130;2023-01-24T10:45:47;14;13;
77352;PMS5003;66421;40.310;-75.130;2023-01-24T10:48:12;17;15;
77352;PMS5003;66421;40.310;-75.130;2023-01-24T10:50:40;18;15;
77352;PMS5003;66421;40.310;-75.130;2023-01-24T10:55:30;18;15;
77352;PMS5003;66421;40.310;-75.130;2023-01-24T10:57:53;19;14;
77352;PMS5003;66421;40.310;-75.130;2023-01-24T11:00:24;14;14;
77352;PMS5003;66421;40.310;-75.130;2023-01-24T11:02:44;14;14;
77352;PMS5003;66421;40.310;-75.130;2023-01-24T11:05:11;14;14;
77352;PMS5003;66421;40.310;-75.130;2023-01-24T11:07:35;17;17;
77352;PMS5003;66421;40.310;-75.130;2023-01-24T11:10:00;16;15;
77352;PMS5003;66421;40.310;-75.130;2023-01-24T11:12:24;20;20;
77352;PMS5003;66421;40.310;-75.130;2023-01-24T11:14:50;17;16;
77352;PMS5003;66421;40.310;-75.130;2023-01-24T11:19:40;16;15;
77352;PMS5003;66421;40.310;-75.130;2023-01-24T11:24:31;13;11;
77352;PMS5003;66421;40.310;-75.130;2023-01-24T11:26:58;22;17;
77352;PMS5003;66421;40.310;-75.130;2023-01-24T11:29:23;16;15;
77352;PMS5003;66421;40.310;-75.130;2023-01-24T11:31:48;16;15;
77352;PMS5003;66421;40.310;-75.130;2023-01-24T11:34:18;16;15;
77352;PMS5003;66421;40.310;-75.130;2023-01-24T11:36:39;17;15;
77352;PMS5003;66421;40.310;-75.130;2023-01-24T11:39:06;23;18;
77352;PMS5003;66421;40.310;-75.130;2023-01-24T11:41:30;20;16;
77352;PMS5003;66421;40.310;-75.130;2023-01-24T11:44:02;16;15;
77352;PMS5003;66421;40.310;-75.130;2023-01-24T11:46:23;17;16;
77352;PMS5003;66421;40.310;-75.130;2023-01-24T11:48:47;15;15;
77352;PMS5003;66421;40.310;-75.130;2023-01-24T11:51:12;24;19;
77352;PMS5003;66421;40.310;-75.130;2023-01-24T11:53:40;20;17;
77352;PMS5003;66421;40.310;-75.130;2023-01-24T11:56:04;21;18;
77352;PMS5003;66421;40.310;-75.130;2023-01-24T11:58:32;20;16;
77352;PMS5003;66421;40.310;-75.130;2023-01-24T12:00:52;22;21;
77352;PMS5003;66421;40.310;-75.130;2023-01-24T12:05:47;29;21;
77352;PMS5003;66421;40.310;-75.130;2023-01-24T12:08:12;22;21;
77352;PMS5003;66421;40.310;-75.130;2023-01-24T12:10:36;20;18;
77352;PMS5003;66421;40.310;-75.130;2023-01-24T12:13:01;20;20;
77352;PMS5003;66421;40.310;-75.130;2023-01-24T12:15:26;21;20;
77352;PMS5003;66421;40.310;-75.130;2023-01-24T12:17:53;21;18;
77352;PMS5003;66421;40.310;-75.130;2023-01-24T12:20:18;20;20;
77352;PMS5003;66421;40.310;-75.130;2023-01-24T12:22:40;18;15;
77352;PMS5003;66421;40.310;-75.130;2023-01-24T12:25:11;17;17;
77352;PMS5003;66421;40.310;-75.130;2023-01-24T12:27:32;29;22;
77352;PMS5003;66421;40.310;-75.130;2023-01-24T12:29:57;25;23;
77352;PMS5003;66421;40.310;-75.130;2023-01-24T12:32:23;32;22;
77352;PMS5003;66421;40.310;-75.130;2023-01-24T12:34:49;21;21;
77352;PMS5003;66421;40.310;-75.130;2023-01-24T12:37:15;24;18;
77352;PMS5003;66421;40.310;-75.130;2023-01-24T12:39:39;20;16;
77352;PMS5003;66421;40.310;-75.130;2023-01-24T12:42:05;22;21;
77352;PMS5003;66421;40.310;-75.130;2023-01-24T12:44:29;21;20;
77352;PMS5003;66421;40.310;-75.130;2023-01-24T12:46:58;23;20;
77352;PMS5003;66421;40.310;-75.130;2023-01-24T12:49:26;25;22;
77352;PMS5003;66421;40.310;-75.130;2023-01-24T12:51:46;27;21;
77352;PMS5003;66421;40.310;-75.130;2023-01-24T12:54:11;29;21;
77352;PMS5003;66421;40.310;-75.130;2023-01-24T12:56:40;31;20;
77352;PMS5003;66421;40.310;-75.130;2023-01-24T12:59:01;18;17;
77352;PMS5003;66421;40.310;-75.130;2023-01-24T13:01:31;21;16;
77352;PMS5003;66421;40.310;-75.130;2023-01-24T13:03:57;18;17;
77352;PMS5003;66421;40.310;-75.130;2023-01-24T13:06:19;20;18;
77352;PMS5003;66421;40.310;-75.130;2023-01-24T13:08:44;32;23;
77352;PMS5003;66421;40.310;-75.130;2023-01-24T13:11:12;20;16;
77352;PMS5003;66421;40.310;-75.130;2023-01-24T13:13:34;16;15;
77352;PMS5003;66421;40.310;-75.130;2023-01-24T13:16:03;21;18;
77352;PMS5003;66421;40.310;-75.130;2023-01-24T13:18:28;20;16;
77352;PMS5003;66421;40.310;-75.130;2023-01-24T13:20:52;17;17;
77352;PMS5003;66421;40.310;-75.130;2023-01-24T13:23:24;16;15;
77352;PMS5003;66421;40.310;-75.130;2023-01-24T13:25:43;16;16;
77352;PMS5003;66421;40.310;-75.130;2023-01-24T13:28:06;18;16;
77352;PMS5003;66421;40.310;-75.130;2023-01-24T13:30:31;18;16;
77352;PMS5003;66421;40.310;-75.130;2023-01-24T13:32:56;21;15;
77352;PMS5003;66421;40.310;-75.130;2023-01-24T13:35:22;16;16;
77352;PMS5003;66421;40.310;-75.130;2023-01-24T13:37:50;21;18;
77352;PMS5003;66421;40.310;-75.130;2023-01-24T13:42:38;21;21;
77352;PMS5003;66421;40.310;-75.130;2023-01-24T13:54:43;21;18;
77352;PMS5003;66421;40.310;-75.130;2023-01-24T13:57:10;21;18;
77352;PMS5003;66421;40.310;-75.130;2023-01-24T13:59:34;23;18;
77352;PMS5003;66421;40.310;-75.130;2023-01-24T14:01:59;24;19;
77352;PMS5003;66421;40.310;-75.130;2023-01-24T14:06:51;19;18;
77352;PMS5003;66421;40.310;-75.130;2023-01-24T14:09:18;26;21;
77352;PMS5003;66421;40.310;-75.130;2023-01-24T14:18:59;19;18;
77352;PMS5003;66421;40.310;-75.130;2023-01-24T14:21:25;21;19;
77352;PMS5003;66421;40.310;-75.130;2023-01-24T14:23:50;20;19;
77352;PMS5003;66421;40.310;-75.130;2023-01-24T14:26:16;21;19;
77352;PMS5003;66421;40.310;-75.130;2023-01-24T14:28:42;27;18;
77352;PMS5003;66421;40.310;-75.130;2023-01-24T14:31:11;19;18;
77352;PMS5003;66421;40.310;-75.130;2023-01-24T14:33:33;28;21;
77352;PMS5003;66421;40.310;-75.130;2023-01-24T14:35:59;23;20;
77352;PMS5003;66421;40.310;-75.130;2023-01-24T14:38:23;20;18;
77352;PMS5003;66421;40.310;-75.130;2023-01-24T14:40:49;15;14;
77352;PMS5003;66421;40.310;-75.130;2023-01-24T14:43:13;15;14;
77352;PMS5003;66421;40.310;-75.130;2023-01-24T14:45:39;17;15;
77352;PMS5003;66421;40.310;-75.130;2023-01-24T14:48:06;16;16;
77352;PMS5003;66421;40.310;-75.130;2023-01-24T14:50:30;22;18;
77352;PMS5003;66421;40.310;-75.130;2023-01-24T14:52:55;14;14;
77352;PMS5003;66421;40.310;-75.130;2023-01-24T14:57:46;14;13;
77352;PMS5003;66421;40.310;-75.130;2023-01-24T15:00:15;15;15;
77352;PMS5003;66421;40.310;-75.130;2023-01-24T15:02:37;15;15;
77352;PMS5003;66421;40.310;-75.130;2023-01-24T15:05:02;21;14;
77352;PMS5003;66421;40.310;-75.130;2023-01-24T15:07:27;14;13;
77352;PMS5003;66421;40.310;-75.130;2023-01-24T15:09:52;20;14;
77352;PMS5003;66421;40.310;-75.130;2023-01-24T15:12:23;13;12;
77352;PMS5003;66421;40.310;-75.130;2023-01-24T15:14:43;14;13;
77352;PMS5003;66421;40.310;-75.130;2023-01-24T15:19:33;13;12;
77352;PMS5003;66421;40.310;-75.130;2023-01-24T15:21:59;10;10;
77352;PMS5003;66421;40.310;-75.130;2023-01-24T15:24:25;10;9;
77352;PMS5003;66421;40.310;-75.130;2023-01-24T15:26:49;9;8;
77352;PMS5003;66421;40.310;-75.130;2023-01-24T15:31:40;7;7;
77352;PMS5003;66421;40.310;-75.130;2023-01-24T15:36:31;9;9;
77352;PMS5003;66421;40.310;-75.130;2023-01-24T15:38:57;9;8;
77352;PMS5003;66421;40.310;-75.130;2023-01-24T15:41:21;7;7;
77352;PMS5003;66421;40.310;-75.130;2023-01-24T15:43:48;7;7;
77352;PMS5003;66421;40.310;-75.130;2023-01-24T15:46:20;7;7;
77352;PMS5003;66421;40.310;-75.130;2023-01-24T15:48:37;8;7;
77352;PMS5003;66421;40.310;-75.130;2023-01-24T15:51:03;8;8;
77352;PMS5003;66421;40.310;-75.130;2023-01-24T15:53:28;9;7;
77352;PMS5003;66421;40.310;-75.130;2023-01-24T15:55:53;8;8;
77352;PMS5003;66421;40.310;-75.130;2023-01-24T15:58:19;8;7;
77352;PMS5003;66421;40.310;-75.130;2023-01-24T16:03:09;9;8;
77352;PMS5003;66421;40.310;-75.130;2023-01-24T16:05:35;8;8;
77352;PMS5003;66421;40.310;-75.130;2023-01-24T16:08:00;9;8;
77352;PMS5003;66421;40.310;-75.130;2023-01-24T16:10:25;8;8;
77352;PMS5003;66421;40.310;-75.130;2023-01-24T16:12:51;8;8;
77352;PMS5003;66421;40.310;-75.130;2023-01-24T16:15:17;9;8;
77352;PMS5003;66421;40.310;-75.130;2023-01-24T16:17:41;9;9;
77352;PMS5003;66421;40.310;-75.130;2023-01-24T16:20:15;10;10;
77352;PMS5003;66421;40.310;-75.130;2023-01-24T16:22:32;11;9;
77352;PMS5003;66421;40.310;-75.130;2023-01-24T16:24:57;10;8;
77352;PMS5003;66421;40.310;-75.130;2023-01-24T16:27:24;9;8;
77352;PMS5003;66421;40.310;-75.130;2023-01-24T16:29:48;10;8;
77352;PMS5003;66421;40.310;-75.130;2023-01-24T16:32:17;8;8;
77352;PMS5003;66421;40.310;-75.130;2023-01-24T16:34:38;9;9;
77352;PMS5003;66421;40.310;-75.130;2023-01-24T16:37:04;8;8;
77352;PMS5003;66421;40.310;-75.130;2023-01-24T16:39:29;11;8;